createdAt,value
2017-04-11T06:05:53.638Z,65.05
2017-04-11T06:06:34.400Z,64.86
2017-04-11T06:07:15.155Z,65.72
2017-04-11T06:07:55.912Z,65.05
2017-04-11T06:08:37.204Z,65.72
2017-04-11T06:09:17.961Z,65.53
2017-04-11T06:09:58.734Z,65.72
2017-04-11T06:10:39.518Z,64.86
2017-04-11T06:11:20.225Z,65.43
2017-04-11T06:12:00.988Z,65.63
2017-04-11T06:12:41.663Z,64.86
2017-04-11T06:13:23.256Z,64.76
2017-04-11T06:15:23.625Z,64.95
2017-04-11T06:16:04.436Z,65.05
2017-04-11T06:16:45.281Z,65.43
2017-04-11T06:17:26.042Z,65.53
2017-04-11T06:18:06.770Z,64.86
2017-04-11T06:18:47.513Z,64.86
2017-04-11T06:19:28.273Z,64.86
2017-04-11T06:20:08.980Z,65.05
2017-04-11T06:20:49.771Z,65.43
2017-04-11T06:21:30.499Z,66.01
2017-04-11T06:22:11.252Z,64.86
2017-04-11T06:22:51.979Z,65.14
2017-04-11T06:23:32.760Z,64.66
2017-04-11T06:24:13.541Z,64.95
2017-04-11T06:24:54.279Z,64.95
2017-04-11T06:25:35.012Z,65.24
2017-04-11T06:26:15.720Z,65.14
2017-04-11T06:26:56.452Z,64.56
2017-04-11T06:27:37.199Z,65.05
2017-04-11T06:28:17.900Z,64.47
2017-04-11T06:28:58.622Z,64.66
2017-04-11T06:29:39.412Z,64.56
2017-04-11T06:30:20.177Z,64.66
2017-04-11T06:31:00.922Z,64.28
2017-04-11T06:31:41.665Z,64.66
2017-04-11T06:32:22.392Z,64.15
2017-04-11T06:33:03.100Z,64.37
2017-04-11T06:33:43.892Z,64.37
2017-04-11T06:34:24.577Z,63.99
2017-04-11T06:35:05.416Z,64.28
2017-04-11T06:35:46.164Z,64.28
2017-04-11T06:36:26.928Z,64.28
2017-04-11T06:37:07.678Z,64.43
2017-04-11T06:37:48.448Z,63.6
2017-04-11T06:38:29.338Z,63.7
2017-04-11T06:39:10.035Z,63.7
2017-04-11T06:39:50.768Z,63.51
2017-04-11T06:40:31.486Z,63.79
2017-04-11T06:41:12.270Z,63.51
2017-04-11T06:41:53.066Z,63.51
2017-04-11T06:42:33.770Z,63.51
2017-04-11T06:43:14.561Z,63.99
2017-04-11T06:43:55.309Z,63.79
2017-04-11T06:44:36.079Z,63.89
2017-04-11T06:45:16.809Z,63.31
2017-04-11T06:45:57.574Z,63.7
2017-04-11T06:46:38.325Z,63.41
2017-04-11T06:47:19.057Z,63.22
2017-04-11T06:47:59.836Z,63.51
2017-04-11T06:48:40.640Z,63.31
2017-04-11T06:49:21.402Z,63.31
2017-04-11T06:50:02.171Z,63.12
2017-04-11T06:50:42.884Z,63.12
2017-04-11T06:51:23.692Z,63.12
2017-04-11T06:52:05.186Z,63.22
2017-04-11T06:52:45.913Z,63.51
2017-04-11T06:53:26.693Z,63.22
2017-04-11T06:54:07.415Z,63.12
2017-04-11T06:54:48.239Z,63.12
2017-04-11T06:55:29.006Z,62.64
2017-04-11T06:56:09.709Z,62.83
2017-04-11T06:56:50.568Z,62.93
2017-04-11T06:57:31.270Z,62.83
2017-04-11T06:58:12.029Z,63.02
2017-04-11T06:58:52.875Z,62.26
2017-04-11T06:59:33.570Z,62.45
2017-04-11T07:00:14.368Z,62.06
2017-04-11T07:00:55.098Z,62.16
2017-04-11T07:01:35.839Z,62.35
2017-04-11T07:02:16.575Z,62.35
2017-04-11T07:02:57.359Z,62.45
2017-04-11T07:03:38.084Z,62.54
2017-04-11T07:04:18.910Z,62.26
2017-04-11T07:04:59.661Z,62.16
2017-04-11T07:05:40.415Z,61.97
2017-04-11T07:06:21.222Z,61.97
2017-04-11T07:07:01.947Z,62.26
2017-04-11T07:07:42.717Z,62.06
2017-04-11T07:08:23.440Z,62.54
2017-04-11T07:09:04.162Z,62.26
2017-04-11T07:09:44.880Z,62.16
2017-04-11T07:10:25.656Z,62.35
2017-04-11T07:11:06.455Z,62.35
2017-04-11T07:11:47.139Z,62.35
2017-04-11T07:12:27.958Z,62.16
2017-04-11T07:13:08.794Z,62.35
2017-04-11T07:13:49.541Z,62.26
2017-04-11T07:14:30.402Z,62.35
2017-04-11T07:15:11.107Z,62.64
2017-04-11T07:15:51.969Z,62.16
2017-04-11T07:16:32.743Z,62.16
2017-04-11T07:17:13.483Z,62.16
2017-04-11T07:17:54.293Z,62.16
2017-04-11T07:18:35.015Z,61.87
2017-04-11T07:19:15.778Z,62.26
2017-04-11T07:19:56.626Z,61.97
2017-04-11T07:20:37.488Z,61.77
2017-04-11T07:21:18.219Z,61.58
2017-04-11T07:21:58.975Z,61.58
2017-04-11T07:22:39.747Z,61.58
2017-04-11T07:23:20.551Z,61.39
2017-04-11T07:24:01.300Z,61.39
2017-04-11T07:24:42.056Z,61.68
2017-04-11T07:25:22.791Z,61.49
2017-04-11T07:26:03.618Z,61.49
2017-04-11T07:26:44.363Z,61.1
2017-04-11T07:27:25.146Z,61.29
2017-04-11T07:28:05.912Z,60.91
2017-04-11T07:28:46.720Z,60.62
2017-04-11T07:29:27.436Z,60.81
2017-04-11T07:30:08.183Z,60.91
2017-04-11T07:30:48.925Z,60.72
2017-04-11T07:31:29.704Z,60.91
2017-04-11T07:32:10.433Z,60.62
2017-04-11T07:32:51.239Z,60.72
2017-04-11T07:33:31.992Z,60.52
2017-04-11T07:34:12.697Z,60.91
2017-04-11T07:34:53.398Z,60.52
2017-04-11T07:35:34.231Z,60.62
2017-04-11T07:36:14.973Z,60.81
2017-04-11T07:36:55.757Z,60.62
2017-04-11T07:37:36.503Z,60.72
2017-04-11T07:38:17.213Z,61.1
2017-04-11T07:38:57.955Z,60.72
2017-04-11T07:39:38.750Z,60.72
2017-04-11T07:40:19.581Z,60.91
2017-04-11T07:41:00.309Z,60.91
2017-04-11T07:41:41.080Z,60.62
2017-04-11T07:42:21.869Z,60.72
2017-04-11T07:43:02.642Z,61
2017-04-11T07:43:43.429Z,61.1
2017-04-11T07:44:38.884Z,61
2017-04-11T07:45:19.605Z,60.81
2017-04-11T07:46:00.297Z,59.49
2017-04-11T07:46:41.054Z,59.04
2017-04-11T07:47:21.796Z,57.82
2017-04-11T07:48:02.591Z,57.92
2017-04-11T07:48:43.321Z,56.95
2017-04-11T07:49:24.074Z,57.17
2017-04-11T07:50:04.850Z,56.49
2017-04-11T07:50:45.699Z,56.21
2017-04-11T07:51:26.499Z,56.4
2017-04-11T07:52:07.914Z,56.01
2017-04-11T07:52:49.752Z,56.3
2017-04-11T07:53:30.528Z,56.33
2017-04-11T07:54:11.290Z,56.59
2017-04-11T07:54:52.026Z,56.43
2017-04-11T07:55:32.765Z,56.04
2017-04-11T07:56:13.519Z,55.85
2017-04-11T07:56:54.309Z,55.46
2017-04-11T07:57:35.060Z,55.46
2017-04-11T07:58:15.800Z,55.66
2017-04-11T07:58:56.553Z,55.56
2017-04-11T07:59:37.322Z,55.27
2017-04-11T08:00:18.062Z,54.88
2017-04-11T08:00:58.851Z,54.88
2017-04-11T08:01:39.606Z,55.01
2017-04-11T08:02:20.299Z,55.08
2017-04-11T08:03:01.094Z,54.82
2017-04-11T08:03:41.827Z,55.1
2017-04-11T08:04:22.599Z,54.91
2017-04-11T08:05:03.398Z,54.91
2017-04-11T08:05:44.171Z,54.91
2017-04-11T08:06:24.917Z,54.72
2017-04-11T08:07:05.556Z,54.82
2017-04-11T08:07:46.318Z,54.91
2017-04-11T08:08:27.651Z,55.1
2017-04-11T08:09:07.817Z,55.01
2017-04-11T08:09:48.663Z,54.72
2017-04-11T08:10:29.387Z,54.33
2017-04-11T08:11:10.246Z,54.33
2017-04-11T08:11:51.036Z,54.33
2017-04-11T08:12:31.871Z,53.85
2017-04-11T08:13:12.650Z,53.56
2017-04-11T08:13:53.393Z,53.75
2017-04-11T08:16:08.898Z,56.2
2017-04-11T08:16:49.676Z,56.96
2017-04-11T08:17:30.452Z,57.45
2017-04-11T08:18:11.217Z,57.64
2017-04-11T08:18:51.988Z,57.93
2017-04-11T08:19:32.739Z,57.84
2017-04-11T08:20:13.610Z,57.74
2017-04-11T08:20:54.368Z,57.71
2017-04-11T08:21:35.139Z,58
2017-04-11T08:22:15.844Z,57.84
2017-04-11T08:22:56.576Z,57.93
2017-04-11T08:23:37.353Z,58.03
2017-04-11T08:24:18.125Z,58.12
2017-04-11T08:24:58.872Z,57.93
2017-04-11T08:25:39.610Z,58.03
2017-04-11T08:26:20.339Z,58.7
2017-04-11T08:27:01.095Z,59.19
2017-04-11T08:27:41.919Z,59
2017-04-11T08:28:22.719Z,58.7
2017-04-11T08:29:03.509Z,59.48
2017-04-11T08:29:44.226Z,60.13
2017-04-11T08:30:24.988Z,60.89
2017-04-11T08:31:05.759Z,61.77
2017-04-11T08:31:46.535Z,62.22
2017-04-11T08:32:27.244Z,60.86
2017-04-11T08:33:07.971Z,60.28
2017-04-11T08:33:48.768Z,59.8
2017-04-11T08:34:29.491Z,59.58
2017-04-11T08:35:10.341Z,59.58
2017-04-11T08:35:51.159Z,60.26
2017-04-11T08:36:32.017Z,61.16
2017-04-11T08:37:12.739Z,61.61
2017-04-11T08:37:53.535Z,62.09
2017-04-11T08:38:34.251Z,62.76
2017-04-11T08:39:15.063Z,63.34
2017-04-11T08:39:55.820Z,63.92
2017-04-11T08:40:36.502Z,63.92
2017-04-11T08:41:17.230Z,63.82
2017-04-11T08:41:57.925Z,64.31
2017-04-11T08:42:38.698Z,63.73
2017-04-11T08:43:19.419Z,64.11
2017-04-11T08:44:00.217Z,64.89
2017-04-11T08:44:40.992Z,64.21
2017-04-11T08:45:21.755Z,64.4
2017-04-11T08:46:02.453Z,64.89
2017-04-11T08:46:43.248Z,64.89
2017-04-11T08:47:23.990Z,64.89
2017-04-11T08:48:04.768Z,65.47
2017-04-11T08:48:45.475Z,64.59
2017-04-11T08:49:26.262Z,64.59
2017-04-11T08:50:07.079Z,65.17
2017-04-11T08:50:47.807Z,65.08
2017-04-11T08:51:28.602Z,64.98
2017-04-11T08:52:09.352Z,65.17
2017-04-11T08:52:50.099Z,65.27
2017-04-11T08:53:30.961Z,65.47
2017-04-11T08:54:11.705Z,64.98
2017-04-11T08:54:52.454Z,64.89
2017-04-11T08:55:33.280Z,65.66
2017-04-11T08:56:14.051Z,64.79
2017-04-11T08:56:54.784Z,65.08
2017-04-11T08:57:35.533Z,65.17
2017-04-11T08:58:16.319Z,64.59
2017-04-11T08:58:57.130Z,64.59
2017-04-11T08:59:37.860Z,64.79
2017-04-11T09:00:18.567Z,64.98
2017-04-11T09:00:59.337Z,64.4
2017-04-11T09:01:40.071Z,64.79
2017-04-11T09:02:20.845Z,64.5
2017-04-11T09:03:01.598Z,64.4
2017-04-11T09:03:42.382Z,63.73
2017-04-11T09:04:23.073Z,63.63
2017-04-11T09:05:03.789Z,63.63
2017-04-11T09:05:44.642Z,64.11
2017-04-11T09:06:25.448Z,64.5
2017-04-11T09:07:06.190Z,64.31
2017-04-11T09:07:46.958Z,65.08
2017-04-11T09:08:27.752Z,65.47
2017-04-11T09:09:08.569Z,66.62
2017-04-11T09:09:49.323Z,66.04
2017-04-11T09:10:30.095Z,66.52
2017-04-11T09:11:10.789Z,66.78
2017-04-11T09:11:51.567Z,66.2
2017-04-11T09:12:32.307Z,67.46
2017-04-11T09:13:13.078Z,67.65
2017-04-11T09:13:53.838Z,66.97
2017-04-11T09:14:34.494Z,67.07
2017-04-11T09:15:15.295Z,67.55
2017-04-11T09:15:55.989Z,67.84
2017-04-11T09:16:36.767Z,68.04
2017-04-11T09:17:17.583Z,68.04
2017-04-11T09:17:58.367Z,68.99
2017-04-11T09:18:39.166Z,68.52
2017-04-11T09:19:19.819Z,69.48
2017-04-11T09:20:00.616Z,69.48
2017-04-11T09:20:41.315Z,68.61
2017-04-11T09:21:22.050Z,69.96
2017-04-11T09:22:02.956Z,70.15
2017-04-11T09:22:43.727Z,70.54
2017-04-11T09:23:24.467Z,70.35
2017-04-11T09:24:05.278Z,71.02
2017-04-11T09:24:46.031Z,70.35
2017-04-11T09:25:26.813Z,70.73
2017-04-11T09:26:07.564Z,70.83
2017-04-11T09:26:48.326Z,70.73
2017-04-11T09:27:29.026Z,71.41
2017-04-11T09:28:09.803Z,71.98
2017-04-11T09:28:50.515Z,70.64
2017-04-11T09:29:31.254Z,71.5
2017-04-11T09:30:11.979Z,71.98
2017-04-11T09:30:52.721Z,70.64
2017-04-11T09:31:33.452Z,71.41
2017-04-11T09:32:14.213Z,71.5
2017-04-11T09:32:54.982Z,70.92
2017-04-11T09:33:35.696Z,70.73
2017-04-11T09:34:16.387Z,70.54
2017-04-11T09:34:57.113Z,70.54
2017-04-11T09:35:37.897Z,71.02
2017-04-11T09:36:18.676Z,70.92
2017-04-11T09:36:59.470Z,70.83
2017-04-11T09:37:40.268Z,71.7
2017-04-11T09:38:21.064Z,71.5
2017-04-11T09:39:01.786Z,71.7
2017-04-11T09:39:42.516Z,71.7
2017-04-11T09:40:23.354Z,71.6
2017-04-11T09:41:04.075Z,71.98
2017-04-11T09:41:44.884Z,71.89
2017-04-11T09:42:25.606Z,71.89
2017-04-11T09:43:06.383Z,71.41
2017-04-11T09:43:47.129Z,71.89
2017-04-11T09:44:27.947Z,71.89
2017-04-11T09:45:08.717Z,71.79
2017-04-11T09:45:49.426Z,71.7
2017-04-11T09:46:30.256Z,71.6
2017-04-11T09:47:10.955Z,71.5
2017-04-11T09:47:51.708Z,71.7
2017-04-11T09:48:32.402Z,71.5
2017-04-11T09:49:13.132Z,71.5
2017-04-11T09:49:53.830Z,71.31
2017-04-11T09:50:34.600Z,71.5
2017-04-11T09:51:15.412Z,71.02
2017-04-11T09:51:56.064Z,71.02
2017-04-11T09:52:36.799Z,71.12
2017-04-11T09:53:17.589Z,70.83
2017-04-11T09:53:58.328Z,70.64
2017-04-11T09:54:39.131Z,70.83
2017-04-11T09:55:19.918Z,70.73
2017-04-11T09:56:00.735Z,69.96
2017-04-11T09:56:41.439Z,70.15
2017-04-11T09:57:22.284Z,70.35
2017-04-11T09:58:02.988Z,70.06
2017-04-11T09:58:43.751Z,69.96
2017-04-11T09:59:24.540Z,69.67
2017-04-11T10:00:05.228Z,69.38
2017-04-11T10:00:45.967Z,69.57
2017-04-11T10:01:26.820Z,69.48
2017-04-11T10:02:07.635Z,69.38
2017-04-11T10:02:48.391Z,69.67
2017-04-11T10:03:29.115Z,69.19
2017-04-11T10:04:10.013Z,68.9
2017-04-11T10:04:50.746Z,68.99
2017-04-11T10:05:31.434Z,68.61
2017-04-11T10:06:12.170Z,68.61
2017-04-11T10:06:52.951Z,68.61
2017-04-11T10:07:33.648Z,68.9
2017-04-11T10:08:14.397Z,68.32
2017-04-11T10:08:55.134Z,68.61
2017-04-11T10:09:35.927Z,68.52
2017-04-11T10:10:16.728Z,68.42
2017-04-11T10:10:57.488Z,68.04
2017-04-11T10:11:38.171Z,68.13
2017-04-11T10:12:18.921Z,68.42
2017-04-11T10:12:59.680Z,68.04
2017-04-11T10:13:40.423Z,68.13
2017-04-11T10:14:21.266Z,68.04
2017-04-11T10:15:02.543Z,67.74
2017-04-11T10:15:43.307Z,67.94
2017-04-11T10:16:24.070Z,68.13
2017-04-11T10:17:04.907Z,67.55
2017-04-11T10:17:45.644Z,67.36
2017-04-11T10:18:26.391Z,67.36
2017-04-11T10:19:07.095Z,68.04
2017-04-11T10:19:47.851Z,67.74
2017-04-11T10:20:28.578Z,67.46
2017-04-11T10:21:09.318Z,67.26
2017-04-11T10:21:50.051Z,67.55
2017-04-11T10:22:30.762Z,67.65
2017-04-11T10:23:11.528Z,67.07
2017-04-11T10:23:52.300Z,67.16
2017-04-11T10:24:33.055Z,67.46
2017-04-11T10:25:13.874Z,66.97
2017-04-11T10:25:54.622Z,67.07
2017-04-11T10:26:35.394Z,67.46
2017-04-11T10:27:16.188Z,66.69
2017-04-11T10:27:56.865Z,66.78
2017-04-11T10:28:37.593Z,66.69
2017-04-11T10:29:18.374Z,66.88
2017-04-11T10:29:59.174Z,66.59
2017-04-11T10:30:39.969Z,67.16
2017-04-11T10:31:20.739Z,66.88
2017-04-11T10:32:01.472Z,66.88
2017-04-11T10:32:42.296Z,66.69
2017-04-11T10:33:23.001Z,66.49
2017-04-11T10:34:03.714Z,66.69
2017-04-11T10:34:44.529Z,66.3
2017-04-11T10:35:25.270Z,66.2
2017-04-11T10:36:05.957Z,66.69
2017-04-11T10:36:46.700Z,66.39
2017-04-11T10:37:27.449Z,66.49
2017-04-11T10:38:08.284Z,66.39
2017-04-11T10:38:48.976Z,66.49
2017-04-11T10:39:29.783Z,66.3
2017-04-11T10:40:10.667Z,66.39
2017-04-11T10:40:51.394Z,66.11
2017-04-11T10:41:32.195Z,66.49
2017-04-11T10:42:13.011Z,66.88
2017-04-11T10:42:53.777Z,66.78
2017-04-11T10:43:34.612Z,66.78
2017-04-11T10:44:15.360Z,66.3
2017-04-11T10:44:56.105Z,66.78
2017-04-11T10:45:36.828Z,66.39
2017-04-11T10:46:17.576Z,66.49
2017-04-11T10:46:58.260Z,67.07
2017-04-11T10:47:39.004Z,66.59
2017-04-11T10:48:19.758Z,66.69
2017-04-11T10:49:00.477Z,66.11
2017-04-11T10:49:41.229Z,66.69
2017-04-11T10:50:21.961Z,66.97
2017-04-11T10:51:02.701Z,66.01
2017-04-11T10:51:43.429Z,66.11
2017-04-11T10:52:24.160Z,66.2
2017-04-11T10:53:04.903Z,66.11
2017-04-11T10:53:45.737Z,66.11
2017-04-11T10:54:26.500Z,66.3
2017-04-11T10:55:07.264Z,66.59
2017-04-11T10:55:48.011Z,66.11
2017-04-11T10:56:28.720Z,66.11
2017-04-11T10:57:09.531Z,66.3
2017-04-11T10:57:50.229Z,65.81
2017-04-11T10:58:31.015Z,66.11
2017-04-11T10:59:11.798Z,65.81
2017-04-11T10:59:52.556Z,66.11
2017-04-11T11:00:33.392Z,66.11
2017-04-11T11:01:14.160Z,66.01
2017-04-11T11:01:54.905Z,66.11
2017-04-11T11:02:35.692Z,66.2
2017-04-11T11:03:16.490Z,66.11
2017-04-11T11:03:57.258Z,65.91
2017-04-11T11:04:38.011Z,65.91
2017-04-11T11:05:18.734Z,66.2
2017-04-11T11:06:06.048Z,66.3
2017-04-11T11:06:46.816Z,66.11
2017-04-11T11:07:27.629Z,66.3
2017-04-11T11:08:08.389Z,66.2
2017-04-11T11:08:49.115Z,65.43
2017-04-11T11:09:29.861Z,65.43
2017-04-11T11:10:10.576Z,66.11
2017-04-11T11:10:51.381Z,66.17
2017-04-11T11:11:32.172Z,65.63
2017-04-11T11:12:12.943Z,65.63
2017-04-11T11:12:53.743Z,66.01
2017-04-11T11:13:34.490Z,65.72
2017-04-11T11:14:15.226Z,66.3
2017-04-11T11:14:55.946Z,65.53
2017-04-11T11:15:36.774Z,65.33
2017-04-11T11:16:17.562Z,66.3
2017-04-11T11:16:58.322Z,65.43
2017-04-11T11:17:39.086Z,65.72
2017-04-11T11:18:19.776Z,65.33
2017-04-11T11:19:00.569Z,65.33
2017-04-11T11:19:41.396Z,64.86
2017-04-11T11:20:22.230Z,65.14
2017-04-11T11:21:03.003Z,65.24
2017-04-11T11:21:43.755Z,65.72
2017-04-11T11:22:24.472Z,65.33
2017-04-11T11:23:05.220Z,65.24
2017-04-11T11:23:45.998Z,65.53
2017-04-11T11:24:26.741Z,65.63
2017-04-11T11:25:07.488Z,65.43
2017-04-11T11:25:48.281Z,64.95
2017-04-11T11:26:29.106Z,64.95
2017-04-11T11:27:09.875Z,64.86
2017-04-11T11:27:50.591Z,65.43
2017-04-11T11:28:31.358Z,64.95
2017-04-11T11:29:12.100Z,65.14
2017-04-11T11:29:52.835Z,64.66
2017-04-11T11:30:33.555Z,64.86
2017-04-11T11:31:14.322Z,65.05
2017-04-11T11:31:55.062Z,65.43
2017-04-11T11:32:35.841Z,65.43
2017-04-11T11:33:16.551Z,64.76
2017-04-11T11:33:57.322Z,65.43
2017-04-11T11:34:38.094Z,64.56
2017-04-11T11:35:18.959Z,65.24
2017-04-11T11:35:59.674Z,64.95
2017-04-11T11:36:40.460Z,65.05
2017-04-11T11:37:21.256Z,65.14
2017-04-11T11:38:02.020Z,64.66
2017-04-11T11:38:42.792Z,65.14
2017-04-11T11:39:23.608Z,65.05
2017-04-11T11:40:04.356Z,64.66
2017-04-11T11:40:45.086Z,65.63
2017-04-11T11:41:25.909Z,65.33
2017-04-11T11:42:06.678Z,64.56
2017-04-11T11:42:47.412Z,64.66
2017-04-11T11:43:28.177Z,64.66
2017-04-11T11:44:08.918Z,65.05
2017-04-11T11:44:49.633Z,65.24
2017-04-11T11:45:31.084Z,64.28
2017-04-11T11:46:11.817Z,64.37
2017-04-11T11:46:52.561Z,64.56
2017-04-11T11:47:33.355Z,64.66
2017-04-11T11:48:14.135Z,65.14
2017-04-11T11:48:54.925Z,64.95
2017-04-11T11:49:35.716Z,64.56
2017-04-11T11:50:16.456Z,64.47
2017-04-11T11:50:57.189Z,64.66
2017-04-11T11:51:37.908Z,65.81
2017-04-11T11:52:19.500Z,64.66
2017-04-11T11:53:00.261Z,64.66
2017-04-11T11:53:41.063Z,65.63
2017-04-11T11:54:21.740Z,64.66
2017-04-11T11:55:02.527Z,64.95
2017-04-11T11:55:43.354Z,64.86
2017-04-11T11:56:24.095Z,64.37
2017-04-11T11:57:04.905Z,64.66
2017-04-11T11:57:45.629Z,64.66
2017-04-11T11:58:26.392Z,65.14
2017-04-11T11:59:07.232Z,64.95
2017-04-11T11:59:48.037Z,64.56
2017-04-11T12:00:28.820Z,64.47
2017-04-11T12:01:09.498Z,64.66
2017-04-11T12:01:50.217Z,64.66
2017-04-11T12:02:31.025Z,64.66
2017-04-11T12:03:11.759Z,64.47
2017-04-11T12:03:52.511Z,64.76
2017-04-11T12:04:33.193Z,64.76
2017-04-11T12:05:13.962Z,64.56
2017-04-11T12:05:54.678Z,64.76
2017-04-11T12:06:35.447Z,64.37
2017-04-11T12:07:16.219Z,64.95
2017-04-11T12:07:57.024Z,64.56
2017-04-11T12:08:37.763Z,64.86
2017-04-11T12:09:18.493Z,64.56
2017-04-11T12:09:59.224Z,64.76
2017-04-11T12:10:39.958Z,64.66
2017-04-11T12:11:20.765Z,64.37
2017-04-11T12:12:01.514Z,64.47
2017-04-11T12:12:42.273Z,65.05
2017-04-11T12:13:23.057Z,64.47
2017-04-11T12:14:03.798Z,64.66
2017-04-11T12:14:44.570Z,64.95
2017-04-11T12:15:25.373Z,64.56
2017-04-11T12:16:06.101Z,64.86
2017-04-11T12:16:46.794Z,63.89
2017-04-11T12:17:27.632Z,64.95
2017-04-11T12:18:08.375Z,64.66
2017-04-11T12:18:49.186Z,64.47
2017-04-11T12:19:29.989Z,64.76
2017-04-11T12:20:10.793Z,64.76
2017-04-11T12:20:51.552Z,64.76
2017-04-11T12:21:32.347Z,64.76
2017-04-11T12:22:13.199Z,64.76
2017-04-11T12:22:53.966Z,64.76
2017-04-11T12:23:34.690Z,64.86
2017-04-11T12:24:15.439Z,64.08
2017-04-11T12:24:56.248Z,64.95
2017-04-11T12:25:36.929Z,64.76
2017-04-11T12:26:17.682Z,64.47
2017-04-11T12:26:58.493Z,64.76
2017-04-11T12:27:39.303Z,64.86
2017-04-11T12:28:20.050Z,64.86
2017-04-11T12:29:00.813Z,64.47
2017-04-11T12:29:41.582Z,64.18
2017-04-11T12:30:22.470Z,64.28
2017-04-11T12:31:03.223Z,64.08
2017-04-11T12:31:44.007Z,64.47
2017-04-11T12:32:24.744Z,64.37
2017-04-11T12:33:05.532Z,64.28
2017-04-11T12:33:46.343Z,64.28
2017-04-11T12:34:27.124Z,64.66
2017-04-11T12:35:07.996Z,64.37
2017-04-11T12:35:48.799Z,64.47
2017-04-11T12:36:29.602Z,64.18
2017-04-11T12:37:10.339Z,64.47
2017-04-11T12:37:51.120Z,64.47
2017-04-11T12:38:31.853Z,64.37
2017-04-11T12:39:12.612Z,64.28
2017-04-11T12:39:53.443Z,63.98
2017-04-11T12:40:34.218Z,64.47
2017-04-11T12:41:15.038Z,64.18
2017-04-11T12:41:55.820Z,64.08
2017-04-11T12:42:36.655Z,64.37
2017-04-11T12:43:17.379Z,64.28
2017-04-11T12:43:58.244Z,64.28
2017-04-11T12:44:38.992Z,64.28
2017-04-11T12:45:19.785Z,64.08
2017-04-11T12:46:00.559Z,64.08
2017-04-11T12:46:41.323Z,64.37
2017-04-11T12:47:22.085Z,64.37
2017-04-11T12:48:02.816Z,64.37
2017-04-11T12:48:43.625Z,64.08
2017-04-11T12:49:24.374Z,63.7
2017-04-11T12:50:05.077Z,63.6
2017-04-11T12:50:45.894Z,63.7
2017-04-11T12:51:26.654Z,64.28
2017-04-11T12:52:07.396Z,63.89
2017-04-11T12:52:48.167Z,63.79
2017-04-11T12:53:28.947Z,63.79
2017-04-11T12:54:10.276Z,63.89
2017-04-11T12:54:50.987Z,63.79
2017-04-11T12:55:31.824Z,63.98
2017-04-11T12:56:12.632Z,63.7
2017-04-11T12:56:53.418Z,63.6
2017-04-11T12:57:34.164Z,64.08
2017-04-11T12:58:14.987Z,63.79
2017-04-11T12:58:55.747Z,63.89
2017-04-11T12:59:36.444Z,63.79
2017-04-11T13:00:17.254Z,63.7
2017-04-11T13:00:57.941Z,64.08
2017-04-11T13:01:38.688Z,63.5
2017-04-11T13:02:19.412Z,63.89
2017-04-11T13:03:00.161Z,63.7
2017-04-11T13:03:40.917Z,63.89
2017-04-11T13:04:21.737Z,63.89
2017-04-11T13:05:02.518Z,63.89
2017-04-11T13:05:43.211Z,63.98
2017-04-11T13:06:24.094Z,63.5
2017-04-11T13:07:04.796Z,63.89
2017-04-11T13:07:45.537Z,63.79
2017-04-11T13:08:26.330Z,63.79
2017-04-11T13:09:07.156Z,64.08
2017-04-11T13:09:47.911Z,63.79
2017-04-11T13:10:28.609Z,63.79
2017-04-11T13:11:09.359Z,63.79
2017-04-11T13:11:50.057Z,63.6
2017-04-11T13:12:30.809Z,63.5
2017-04-11T13:13:11.624Z,63.79
2017-04-11T13:13:52.337Z,63.7
2017-04-11T13:14:33.164Z,63.79
2017-04-11T13:15:16.809Z,63.79
2017-04-11T13:15:57.684Z,63.79
2017-04-11T13:16:38.428Z,63.89
2017-04-11T13:17:19.272Z,63.7
2017-04-11T13:17:59.953Z,63.98
2017-04-11T13:18:40.660Z,63.79
2017-04-11T13:19:21.441Z,63.5
2017-04-11T13:20:02.217Z,63.79
2017-04-11T13:20:42.992Z,63.89
2017-04-11T13:21:23.881Z,63.79
2017-04-11T13:22:04.538Z,63.7
2017-04-11T13:22:45.244Z,63.98
2017-04-11T13:23:26.027Z,63.89
2017-04-11T13:24:06.744Z,63.89
2017-04-11T13:24:47.472Z,63.7
2017-04-11T13:25:28.242Z,63.89
2017-04-11T13:26:09.023Z,63.6
2017-04-11T13:26:49.787Z,63.79
2017-04-11T13:27:30.552Z,63.98
2017-04-11T13:28:11.368Z,64.08
2017-04-11T13:28:52.085Z,63.31
2017-04-11T13:29:32.854Z,63.89
2017-04-11T13:30:13.773Z,63.89
2017-04-11T13:30:54.570Z,63.7
2017-04-11T13:31:35.254Z,63.7
2017-04-11T13:32:16.046Z,63.79
2017-04-11T13:32:56.809Z,64.08
2017-04-11T13:33:37.604Z,63.41
2017-04-11T13:34:18.352Z,63.98
2017-04-11T13:34:59.142Z,64.18
2017-04-11T13:35:39.866Z,63.41
2017-04-11T13:36:20.600Z,63.31
2017-04-11T13:37:01.389Z,63.21
2017-04-11T13:37:42.151Z,63.41
2017-04-11T13:38:22.838Z,63.98
2017-04-11T13:39:03.611Z,63.21
2017-04-11T13:39:44.297Z,63.31
2017-04-11T13:40:25.062Z,63.41
2017-04-11T13:41:05.781Z,63.6
2017-04-11T13:41:46.563Z,63.6
2017-04-11T13:42:27.338Z,63.6
2017-04-11T13:43:08.148Z,63.31
2017-04-11T13:43:49.054Z,63.41
2017-04-11T13:44:29.856Z,63.02
2017-04-11T13:45:11.164Z,63.02
2017-04-11T13:45:51.928Z,63.31
2017-04-11T13:46:32.716Z,63.5
2017-04-11T13:47:13.430Z,63.5
2017-04-11T13:47:54.170Z,63.6
2017-04-11T13:48:34.915Z,63.41
2017-04-11T13:49:15.732Z,63.6
2017-04-11T13:49:56.575Z,63.5
2017-04-11T13:50:37.321Z,63.7
2017-04-11T13:51:18.127Z,63.31
2017-04-11T13:51:58.921Z,63.5
2017-04-11T13:52:39.686Z,63.41
2017-04-11T13:53:20.409Z,63.31
2017-04-11T13:54:01.190Z,63.6
2017-04-11T13:54:41.973Z,63.12
2017-04-11T13:55:22.721Z,63.5
2017-04-11T13:56:03.426Z,63.31
2017-04-11T13:56:44.192Z,63.5
2017-04-11T13:57:24.961Z,63.7
2017-04-11T13:58:05.732Z,63.5
2017-04-11T13:58:46.522Z,63.41
2017-04-11T13:59:27.249Z,63.12
2017-04-11T14:00:07.989Z,63.31
2017-04-11T14:00:48.705Z,63.21
2017-04-11T14:01:29.465Z,63.31
2017-04-11T14:02:10.269Z,63.6
2017-04-11T14:02:51.098Z,63.6
2017-04-11T14:03:31.886Z,63.21
2017-04-11T14:04:12.627Z,63.21
2017-04-11T14:04:53.361Z,63.21
2017-04-11T14:05:34.115Z,63.31
2017-04-11T14:06:14.910Z,63.41
2017-04-11T14:06:55.626Z,63.31
2017-04-11T14:07:36.417Z,63.31
2017-04-11T14:08:17.256Z,63.31
2017-04-11T14:08:57.927Z,63.31
2017-04-11T14:09:38.657Z,63.12
2017-04-11T14:10:19.408Z,63.31
2017-04-11T14:11:00.157Z,63.21
2017-04-11T14:11:40.933Z,63.12
2017-04-11T14:12:21.634Z,62.93
2017-04-11T14:13:02.458Z,62.93
2017-04-11T14:13:43.208Z,63.31
2017-04-11T14:14:23.966Z,63.21
2017-04-11T14:15:04.773Z,63.21
2017-04-11T14:16:54.517Z,62.73
2017-04-11T14:17:35.260Z,62.93
2017-04-11T14:18:15.992Z,63.02
2017-04-11T14:18:56.836Z,62.35
2017-04-11T14:19:37.551Z,62.83
2017-04-11T14:20:18.361Z,62.83
2017-04-11T14:20:59.079Z,62.63
2017-04-11T14:21:39.861Z,62.93
2017-04-11T14:22:20.601Z,62.93
2017-04-11T14:23:01.404Z,62.54
2017-04-11T14:23:42.176Z,62.93
2017-04-11T14:24:22.923Z,62.93
2017-04-11T14:25:03.655Z,62.83
2017-04-11T14:25:44.344Z,62.83
2017-04-11T14:26:25.032Z,62.83
2017-04-11T14:27:05.813Z,62.73
2017-04-11T14:27:46.603Z,62.93
2017-04-11T14:28:27.340Z,62.54
2017-04-11T14:29:08.133Z,62.54
2017-04-11T14:29:48.839Z,62.54
2017-04-11T14:30:29.593Z,62.15
2017-04-11T14:31:10.263Z,62.35
2017-04-11T14:31:50.965Z,62.35
2017-04-11T14:32:31.766Z,62.54
2017-04-11T14:33:12.487Z,62.15
2017-04-11T14:33:53.255Z,62.06
2017-04-11T14:34:33.944Z,62.54
2017-04-11T14:35:14.737Z,62.45
2017-04-11T14:35:55.479Z,62.35
2017-04-11T14:36:36.306Z,62.73
2017-04-11T14:37:16.987Z,62.54
2017-04-11T14:37:57.651Z,62.15
2017-04-11T14:38:38.377Z,62.35
2017-04-11T14:39:19.170Z,62.15
2017-04-11T14:39:59.966Z,62.15
2017-04-11T14:40:40.622Z,62.15
2017-04-11T14:41:21.401Z,62.54
2017-04-11T14:42:02.152Z,62.15
2017-04-11T14:42:42.985Z,62.25
2017-04-11T14:43:23.760Z,61.87
2017-04-11T14:44:04.504Z,55.31
2017-04-11T14:44:45.267Z,49.82
2017-04-11T14:45:26.032Z,47.51
2017-04-11T14:46:06.850Z,47.05
2017-04-11T14:46:47.579Z,44.93
2017-04-11T14:47:28.257Z,44.06
2017-04-11T14:48:09.072Z,43.67
2017-04-11T14:48:49.859Z,44.35
2017-04-11T14:49:30.612Z,45.03
2017-04-11T14:50:11.354Z,45.03
2017-04-11T14:50:52.136Z,45.03
2017-04-11T14:51:32.905Z,45.6
2017-04-11T14:52:13.684Z,47.72
2017-04-11T14:52:54.442Z,47.53
2017-04-11T14:53:35.234Z,46.08
2017-04-11T14:54:16.012Z,45.21
2017-04-11T14:54:56.774Z,44.93
2017-04-11T14:55:37.537Z,46.18
2017-04-11T14:56:18.353Z,46.28
2017-04-11T14:56:59.110Z,45.31